Time;durP1;ratioP1;P1;durP2;ratioP2;P2;SDS_P1;SDS_P2;PMS_P1;PMS_P2;Temp;Humidity;BMP_temperature;BMP_pressure;BME280_temperature;BME280_humidity;BME280_pressure;Samples;Min_cycle;Max_cycle;Signal;HPM_P1;HPM_P2
2023/08/14 00:00:13;;;;;;;4.15;1.80;;;18.80;99.90;;;;;;4906183;29;20050;-82
2023/08/14 00:02:38;;;;;;;3.33;2.03;;;18.80;99.90;;;;;;4904934;29;20084;-82
2023/08/14 00:05:04;;;;;;;3.28;1.73;;;18.70;99.90;;;;;;4907076;29;20036;-82
2023/08/14 00:07:30;;;;;;;4.13;1.73;;;18.70;99.90;;;;;;4905038;29;20120;-82
2023/08/14 00:09:55;;;;;;;2.28;1.70;;;18.70;99.90;;;;;;4905113;29;20198;-82
2023/08/14 00:12:21;;;;;;;5.20;1.90;;;18.70;99.90;;;;;;4902190;29;20037;-82
2023/08/14 00:14:47;;;;;;;4.15;1.90;;;18.60;99.90;;;;;;4905886;29;20028;-82
2023/08/14 00:17:12;;;;;;;5.38;1.95;;;18.60;99.90;;;;;;4903598;29;20096;-82
2023/08/14 00:19:38;;;;;;;4.82;2.20;;;18.60;99.90;;;;;;4907338;29;20040;-82
2023/08/14 00:22:04;;;;;;;7.60;2.35;;;18.60;99.90;;;;;;4905492;29;20052;-82
2023/08/14 00:24:29;;;;;;;2.80;1.92;;;18.60;99.90;;;;;;4904902;29;20024;-82
2023/08/14 00:26:55;;;;;;;4.00;1.85;;;18.50;99.90;;;;;;4903296;29;20028;-82
2023/08/14 00:29:20;;;;;;;3.05;1.85;;;18.50;99.90;;;;;;4905672;29;20031;-82
2023/08/14 00:31:46;;;;;;;2.88;2.05;;;18.50;99.90;;;;;;4905668;29;20020;-81
2023/08/14 00:34:11;;;;;;;3.08;1.92;;;18.50;99.90;;;;;;4903749;29;20071;-82
2023/08/14 00:36:37;;;;;;;4.18;2.13;;;18.50;99.90;;;;;;4903183;29;20063;-82
2023/08/14 00:39:03;;;;;;;2.35;1.90;;;18.40;99.90;;;;;;4904362;29;20056;-82
2023/08/14 00:41:28;;;;;;;3.65;2.03;;;18.40;99.90;;;;;;4906357;29;20055;-82
2023/08/14 00:43:54;;;;;;;2.83;1.77;;;18.40;99.90;;;;;;4905488;29;20591;-82
2023/08/14 00:46:20;;;;;;;4.50;1.70;;;18.40;99.90;;;;;;4902075;29;20569;-82
2023/08/14 00:48:45;;;;;;;3.28;1.92;;;18.40;99.90;;;;;;4903589;29;20064;-82
2023/08/14 00:51:11;;;;;;;2.40;1.70;;;18.40;99.90;;;;;;4904788;29;20628;-82
2023/08/14 00:53:37;;;;;;;5.57;1.95;;;18.40;99.90;;;;;;4904272;29;20034;-82
2023/08/14 00:56:04;;;;;;;4.30;2.00;;;18.30;99.90;;;;;;4904133;29;20869;-81
2023/08/14 00:58:30;;;;;;;3.42;2.25;;;18.30;99.90;;;;;;4908930;29;20024;-81
2023/08/14 01:00:57;;;;;;;3.22;2.00;;;18.30;99.90;;;;;;4907518;29;20036;-82
2023/08/14 01:03:24;;;;;;;5.25;2.15;;;18.30;99.90;;;;;;4908017;29;20043;-82
2023/08/14 01:05:49;;;;;;;3.70;2.20;;;18.20;99.90;;;;;;4908514;29;20515;-82
2023/08/14 01:08:15;;;;;;;2.67;2.08;;;18.20;99.90;;;;;;4907996;29;20035;-81
2023/08/14 01:11:01;;;;;;;4.70;2.20;;;18.20;99.90;;;;;;4909488;29;20039;-81
2023/08/14 01:13:39;;;;;;;5.60;2.00;;;18.20;99.90;;;;;;4907793;29;20039;-82
2023/08/14 01:16:13;;;;;;;4.78;2.30;;;18.20;99.90;;;;;;4907853;29;20036;-82
2023/08/14 01:18:42;;;;;;;4.13;2.07;;;18.20;99.90;;;;;;4909542;29;20051;-81
2023/08/14 01:21:07;;;;;;;6.03;2.15;;;18.20;99.90;;;;;;4906311;29;20749;-81
2023/08/14 01:23:45;;;;;;;4.63;2.33;;;18.10;99.90;;;;;;4906486;29;20028;-81
2023/08/14 01:26:11;;;;;;;3.42;2.20;;;18.10;99.90;;;;;;4906573;29;20044;-81
2023/08/14 01:28:38;;;;;;;4.03;2.25;;;18.10;99.90;;;;;;4907924;29;20021;-81
2023/08/14 01:31:03;;;;;;;3.33;2.30;;;18.00;99.90;;;;;;4906546;29;20653;-81
2023/08/14 01:33:29;;;;;;;2.70;2.10;;;18.00;99.90;;;;;;4906878;29;20024;-81
2023/08/14 01:36:02;;;;;;;7.47;2.45;;;18.00;99.90;;;;;;4905019;29;20064;-81
2023/08/14 01:38:53;;;;;;;3.28;2.17;;;18.00;99.90;;;;;;4907566;29;20045;-81
2023/08/14 01:41:25;;;;;;;3.72;2.10;;;18.00;99.90;;;;;;4905487;29;20162;-81
2023/08/14 01:43:57;;;;;;;3.72;2.22;;;17.90;99.90;;;;;;4907050;29;20036;-81
2023/08/14 01:46:25;;;;;;;4.80;2.15;;;17.90;99.90;;;;;;4906982;29;20436;-81
2023/08/14 01:48:52;;;;;;;4.60;1.98;;;17.90;99.90;;;;;;4905205;29;20078;-81
2023/08/14 01:51:20;;;;;;;3.38;1.92;;;17.90;99.90;;;;;;4904933;29;20093;-82
2023/08/14 01:53:46;;;;;;;4.80;2.58;;;17.80;99.90;;;;;;4905574;29;20032;-81
2023/08/14 01:56:12;;;;;;;4.32;2.17;;;17.90;99.90;;;;;;4903982;29;20092;-81
2023/08/14 01:58:38;;;;;;;3.28;1.90;;;17.80;99.90;;;;;;4903355;29;20238;-80
2023/08/14 02:01:03;;;;;;;4.10;2.22;;;17.80;99.90;;;;;;4904340;29;20495;-81
2023/08/14 02:03:29;;;;;;;3.47;2.10;;;17.80;99.90;;;;;;4902831;29;20036;-81
2023/08/14 02:05:55;;;;;;;4.10;2.38;;;17.70;99.90;;;;;;4902638;29;20119;-80
2023/08/14 02:08:21;;;;;;;7.78;2.38;;;17.70;99.90;;;;;;4901509;29;20571;-81
2023/08/14 02:10:46;;;;;;;7.18;2.38;;;17.70;99.90;;;;;;4902840;29;20118;-81
2023/08/14 02:13:12;;;;;;;2.67;2.30;;;17.70;99.90;;;;;;4903327;29;21487;-81
2023/08/14 02:15:38;;;;;;;4.78;1.95;;;17.70;99.90;;;;;;4903108;29;20041;-81
2023/08/14 02:18:03;;;;;;;2.63;2.00;;;17.70;99.90;;;;;;4900581;29;20376;-81
2023/08/14 02:20:29;;;;;;;5.18;2.22;;;17.70;99.90;;;;;;4906083;29;21380;-81
2023/08/14 02:22:55;;;;;;;4.32;2.22;;;17.70;99.90;;;;;;4905692;29;20067;-81
2023/08/14 02:25:20;;;;;;;3.83;2.17;;;17.70;99.90;;;;;;4903058;29;20024;-81
2023/08/14 02:27:46;;;;;;;3.45;2.20;;;17.70;99.90;;;;;;4904887;29;20051;-81
2023/08/14 02:30:11;;;;;;;4.10;2.13;;;17.70;99.90;;;;;;4903517;29;20036;-81
2023/08/14 02:32:37;;;;;;;3.03;1.90;;;17.70;99.90;;;;;;4905757;29;20025;-81
2023/08/14 02:35:03;;;;;;;3.63;1.85;;;17.70;99.90;;;;;;4906117;29;20040;-81
2023/08/14 02:37:28;;;;;;;5.45;2.10;;;17.60;99.90;;;;;;4904870;29;20031;-80
2023/08/14 02:39:54;;;;;;;4.07;1.85;;;17.60;99.90;;;;;;4906545;29;20096;-81
2023/08/14 02:42:20;;;;;;;7.13;2.10;;;17.60;99.90;;;;;;4904735;29;20048;-80
2023/08/14 02:44:46;;;;;;;4.40;2.25;;;17.60;99.90;;;;;;4905134;29;20039;-80
2023/08/14 02:47:12;;;;;;;2.45;1.75;;;17.50;99.90;;;;;;4905324;29;20500;-80
2023/08/14 02:49:37;;;;;;;4.78;2.40;;;17.50;99.90;;;;;;4905785;29;20036;-80
2023/08/14 02:52:03;;;;;;;4.53;1.83;;;17.50;99.90;;;;;;4908078;29;20032;-81
2023/08/14 02:54:29;;;;;;;7.07;2.58;;;17.50;99.90;;;;;;4906724;29;20074;-80
2023/08/14 02:56:54;;;;;;;4.95;2.15;;;17.50;99.90;;;;;;4904487;29;20024;-81
2023/08/14 02:59:20;;;;;;;4.55;2.53;;;17.50;99.90;;;;;;4904148;29;20024;-81
2023/08/14 03:01:46;;;;;;;3.15;2.00;;;17.50;99.90;;;;;;4903892;29;20024;-80
2023/08/14 03:04:14;;;;;;;3.03;2.10;;;17.50;99.90;;;;;;4905310;29;20040;-81
2023/08/14 03:06:39;;;;;;;5.90;1.98;;;17.50;99.90;;;;;;4903148;29;20036;-81
2023/08/14 03:09:05;;;;;;;2.55;2.20;;;17.60;99.90;;;;;;4904976;29;20031;-80
2023/08/14 03:11:30;;;;;;;2.78;1.65;;;17.60;99.90;;;;;;4905574;29;20032;-81
2023/08/14 03:13:56;;;;;;;7.10;2.45;;;17.60;99.90;;;;;;4903588;29;20171;-81
2023/08/14 03:16:21;;;;;;;4.32;2.38;;;17.60;99.90;;;;;;4904966;29;20108;-81
2023/08/14 03:18:47;;;;;;;4.63;2.30;;;17.60;99.90;;;;;;4903403;29;20031;-80
2023/08/14 03:21:12;;;;;;;4.70;2.20;;;17.60;99.90;;;;;;4902950;29;20027;-81
2023/08/14 03:23:38;;;;;;;4.80;2.38;;;17.60;99.90;;;;;;4904866;29;20024;-81
2023/08/14 03:26:04;;;;;;;4.22;2.33;;;17.70;99.90;;;;;;4904190;29;20036;-80
2023/08/14 03:28:30;;;;;;;4.63;2.05;;;17.60;99.90;;;;;;4903957;29;20032;-80
2023/08/14 03:30:55;;;;;;;2.95;2.38;;;17.70;99.90;;;;;;4902742;29;20054;-80
2023/08/14 03:33:21;;;;;;;5.90;2.55;;;17.70;99.90;;;;;;4903764;29;20032;-80
2023/08/14 03:35:47;;;;;;;4.90;2.28;;;17.60;99.90;;;;;;4901799;29;20145;-81
2023/08/14 03:38:12;;;;;;;3.33;2.60;;;17.60;99.90;;;;;;4902058;29;20040;-81
2023/08/14 03:40:38;;;;;;;8.90;2.20;;;17.60;99.90;;;;;;4901886;29;20033;-80
2023/08/14 03:43:04;;;;;;;4.28;2.50;;;17.60;99.90;;;;;;4901896;29;20034;-81
2023/08/14 03:45:29;;;;;;;2.90;2.33;;;17.60;99.90;;;;;;4904237;29;20147;-80
2023/08/14 03:47:55;;;;;;;6.22;2.88;;;17.60;99.90;;;;;;4904165;29;20904;-81
2023/08/14 03:50:20;;;;;;;5.32;2.92;;;17.70;99.90;;;;;;4903155;29;20520;-81
2023/08/14 03:52:47;;;;;;;4.63;2.70;;;17.60;99.90;;;;;;4903096;29;20029;-80
2023/08/14 03:55:13;;;;;;;9.15;3.38;;;17.60;99.90;;;;;;4902265;29;20111;-81
2023/08/14 03:57:38;;;;;;;5.05;2.78;;;17.60;99.90;;;;;;4904478;29;20095;-81
2023/08/14 04:00:05;;;;;;;4.22;2.92;;;17.70;99.90;;;;;;4903289;29;20052;-80
2023/08/14 04:02:30;;;;;;;9.82;3.30;;;17.70;99.90;;;;;;4903416;29;20456;-80
2023/08/14 04:04:56;;;;;;;11.80;2.90;;;17.70;99.90;;;;;;4904962;29;20096;-81
2023/08/14 04:07:21;;;;;;;4.85;2.83;;;17.70;99.90;;;;;;4903077;29;20031;-75
2023/08/14 04:09:47;;;;;;;5.95;2.92;;;17.60;99.90;;;;;;4898675;29;20035;-75
2023/08/14 04:12:12;;;;;;;4.47;2.78;;;17.60;99.90;;;;;;4898199;29;20040;-75
2023/08/14 04:14:38;;;;;;;4.25;3.05;;;17.70;99.90;;;;;;4896190;29;20048;-76
2023/08/14 04:17:03;;;;;;;4.95;2.67;;;17.70;99.90;;;;;;4895803;29;20539;-74
2023/08/14 04:19:29;;;;;;;3.92;2.88;;;17.70;99.90;;;;;;4897022;29;20020;-74
2023/08/14 04:21:55;;;;;;;4.18;2.90;;;17.70;99.90;;;;;;4896606;29;20039;-78
2023/08/14 04:24:20;;;;;;;4.70;2.85;;;17.70;99.90;;;;;;4894919;29;20058;-77
2023/08/14 04:26:46;;;;;;;4.40;2.88;;;17.70;99.90;;;;;;4894932;29;20035;-77
2023/08/14 04:29:12;;;;;;;5.60;2.80;;;17.70;99.90;;;;;;4896243;29;20025;-76
2023/08/14 04:31:39;;;;;;;7.18;3.00;;;17.70;99.90;;;;;;4894541;29;20052;-77
2023/08/14 04:34:06;;;;;;;5.28;2.63;;;17.80;99.90;;;;;;4895362;29;20028;-77
2023/08/14 04:36:33;;;;;;;5.78;2.70;;;17.80;99.90;;;;;;4896068;29;20120;-76
2023/08/14 04:38:59;;;;;;;3.05;2.45;;;17.80;99.90;;;;;;4897934;29;20028;-76
2023/08/14 04:41:26;;;;;;;8.32;2.78;;;17.80;99.90;;;;;;4895558;29;20054;-77
2023/08/14 04:43:52;;;;;;;3.55;2.40;;;17.80;99.90;;;;;;4897568;29;20036;-77
2023/08/14 04:46:32;;;;;;;5.25;2.95;;;17.80;99.90;;;;;;4897952;29;20032;-76
2023/08/14 04:48:59;;;;;;;4.00;2.40;;;17.80;99.90;;;;;;4897477;29;20028;-76
2023/08/14 04:51:24;;;;;;;5.03;2.83;;;17.90;99.90;;;;;;4896730;29;20039;-77
2023/08/14 04:53:50;;;;;;;3.35;2.30;;;17.90;99.90;;;;;;4895544;29;20040;-78
2023/08/14 04:56:16;;;;;;;5.53;2.40;;;17.90;99.90;;;;;;4896551;29;20116;-77
2023/08/14 04:58:41;;;;;;;3.75;2.10;;;17.90;99.90;;;;;;4896730;29;20029;-77
2023/08/14 05:01:07;;;;;;;4.20;2.15;;;17.90;99.90;;;;;;4891443;29;20032;-78
2023/08/14 05:03:33;;;;;;;5.63;2.58;;;18.00;99.90;;;;;;4895997;29;20510;-78
2023/08/14 05:05:59;;;;;;;5.18;2.30;;;18.00;99.90;;;;;;4896045;29;20491;-78
2023/08/14 05:08:24;;;;;;;4.53;2.20;;;18.00;99.90;;;;;;4894520;29;20064;-76
2023/08/14 05:10:51;;;;;;;3.33;2.67;;;18.10;99.90;;;;;;4893947;29;20036;-77
2023/08/14 05:13:18;;;;;;;3.88;2.10;;;18.10;99.90;;;;;;4896185;29;20072;-77
2023/08/14 05:15:46;;;;;;;4.32;2.47;;;18.10;99.90;;;;;;4894168;29;20078;-77
2023/08/14 05:18:12;;;;;;;2.85;2.55;;;18.10;99.90;;;;;;4895808;29;20037;-77
2023/08/14 05:20:37;;;;;;;3.88;2.15;;;18.20;99.90;;;;;;4895570;29;20094;-77
2023/08/14 05:23:03;;;;;;;4.85;2.42;;;18.20;99.90;;;;;;4895476;29;20037;-78
2023/08/14 05:25:28;;;;;;;4.13;2.38;;;18.20;99.90;;;;;;4895836;29;20034;-77
2023/08/14 05:27:54;;;;;;;4.57;2.55;;;18.20;99.90;;;;;;4895005;29;20035;-77
2023/08/14 05:30:19;;;;;;;4.05;2.50;;;18.30;99.90;;;;;;4895285;29;20127;-77
2023/08/14 05:32:46;;;;;;;17.70;3.20;;;18.30;99.90;;;;;;4894369;29;20094;-78
2023/08/14 05:35:12;;;;;;;4.25;2.58;;;18.30;99.90;;;;;;4891064;29;20040;-77
2023/08/14 05:37:39;;;;;;;4.50;2.78;;;18.30;99.90;;;;;;4893315;29;20060;-78
2023/08/14 05:40:06;;;;;;;5.10;2.85;;;18.40;99.90;;;;;;4894982;29;20039;-75
2023/08/14 05:42:31;;;;;;;5.25;2.88;;;18.40;99.90;;;;;;4892343;29;20520;-75
2023/08/14 05:44:57;;;;;;;4.13;2.35;;;18.50;99.90;;;;;;4895582;29;20032;-75
2023/08/14 05:47:22;;;;;;;2.80;2.25;;;18.60;99.90;;;;;;4895972;29;20391;-76
2023/08/14 05:49:48;;;;;;;3.35;2.30;;;18.60;99.90;;;;;;4895384;29;20057;-76
2023/08/14 05:52:14;;;;;;;5.85;2.80;;;18.70;99.90;;;;;;4888476;29;20040;-75
2023/08/14 05:54:40;;;;;;;4.43;2.38;;;18.70;99.90;;;;;;4888912;29;20052;-76
2023/08/14 05:57:05;;;;;;;7.18;2.70;;;18.80;99.90;;;;;;4890333;29;20573;-74
2023/08/14 05:59:32;;;;;;;4.35;2.53;;;18.80;99.90;;;;;;4889427;29;20103;-74
2023/08/14 06:01:58;;;;;;;5.25;2.15;;;18.80;99.90;;;;;;4888552;29;20544;-76
2023/08/14 06:04:24;;;;;;;6.45;2.67;;;18.90;99.90;;;;;;4893033;29;20131;-75
2023/08/14 06:06:50;;;;;;;4.78;2.60;;;18.90;99.90;;;;;;4887872;29;20036;-75
2023/08/14 06:09:17;;;;;;;4.55;2.40;;;18.90;99.90;;;;;;4888620;29;20813;-74
2023/08/14 06:11:43;;;;;;;4.82;2.40;;;18.90;99.90;;;;;;4888452;29;20032;-75
2023/08/14 06:14:08;;;;;;;4.75;2.28;;;18.90;99.90;;;;;;4889406;29;20035;-76
2023/08/14 06:16:34;;;;;;;7.65;2.60;;;19.00;99.90;;;;;;4884799;29;20756;-74
2023/08/14 06:18:59;;;;;;;4.22;2.58;;;19.10;99.90;;;;;;4887089;29;20039;-76
2023/08/14 06:21:25;;;;;;;4.68;2.63;;;19.10;99.90;;;;;;4887596;29;20789;-75
2023/08/14 06:23:50;;;;;;;4.10;2.25;;;19.20;99.90;;;;;;4887664;29;20039;-77
2023/08/14 06:26:16;;;;;;;3.00;2.25;;;19.30;99.90;;;;;;4894058;29;20084;-77
2023/08/14 06:28:42;;;;;;;4.22;2.30;;;19.50;99.90;;;;;;4895768;29;20072;-76
2023/08/14 06:31:09;;;;;;;4.32;2.30;;;19.60;99.90;;;;;;4899745;29;20111;-82
2023/08/14 06:33:34;;;;;;;3.90;2.20;;;19.80;99.90;;;;;;4897292;29;21124;-82
2023/08/14 06:36:00;;;;;;;5.50;2.22;;;20.00;99.90;;;;;;4897465;29;20119;-82
2023/08/14 06:38:26;;;;;;;6.00;2.50;;;20.20;99.90;;;;;;4894933;29;20028;-82
2023/08/14 06:40:51;;;;;;;3.75;2.60;;;20.40;99.90;;;;;;4898093;29;20037;-83
2023/08/14 06:43:17;;;;;;;5.07;2.33;;;20.60;99.90;;;;;;4898202;29;20048;-83
2023/08/14 06:45:45;;;;;;;7.38;2.72;;;20.70;99.90;;;;;;4898039;29;20497;-83
2023/08/14 06:48:10;;;;;;;4.63;1.90;;;20.80;99.90;;;;;;4896664;29;20028;-83
2023/08/14 06:50:36;;;;;;;5.78;2.55;;;21.00;99.90;;;;;;4898505;29;20088;-84
2023/08/14 06:53:01;;;;;;;3.92;2.42;;;21.00;99.90;;;;;;4900359;29;20037;-84
2023/08/14 06:55:27;;;;;;;6.80;2.38;;;21.20;99.90;;;;;;4900013;29;20064;-82
2023/08/14 06:57:53;;;;;;;3.83;2.10;;;21.30;99.90;;;;;;4898076;29;20462;-82
2023/08/14 07:00:18;;;;;;;12.63;2.83;;;21.30;99.90;;;;;;4900048;29;20024;-81
2023/08/14 07:02:46;;;;;;;5.72;2.50;;;21.50;99.90;;;;;;4900618;29;20074;-81
2023/08/14 07:05:12;;;;;;;5.15;2.30;;;21.50;99.90;;;;;;4898606;29;20139;-81
2023/08/14 07:07:38;;;;;;;6.95;2.10;;;21.60;99.90;;;;;;4898927;29;20024;-81
2023/08/14 07:10:07;;;;;;;4.95;2.40;;;21.70;99.90;;;;;;4898257;29;20036;-83
2023/08/14 07:12:33;;;;;;;2.78;2.00;;;21.80;99.90;;;;;;4898327;29;20112;-82
2023/08/14 07:15:00;;;;;;;3.55;1.92;;;21.80;99.90;;;;;;4897258;29;21427;-82
2023/08/14 07:17:26;;;;;;;3.53;2.15;;;21.80;99.90;;;;;;4897636;29;20087;-82
2023/08/14 07:19:52;;;;;;;5.43;2.47;;;21.90;99.90;;;;;;4893973;29;20037;-82
2023/08/14 07:22:17;;;;;;;3.85;2.10;;;21.80;99.90;;;;;;4895594;29;20036;-81
2023/08/14 07:24:44;;;;;;;4.88;1.98;;;21.90;99.90;;;;;;4898291;29;20036;-81
2023/08/14 07:27:09;;;;;;;6.20;2.35;;;21.90;99.90;;;;;;4898191;29;20044;-81
2023/08/14 07:29:35;;;;;;;3.17;1.83;;;22.00;99.90;;;;;;4898660;29;20037;-81
2023/08/14 07:32:00;;;;;;;4.30;2.33;;;22.10;99.90;;;;;;4899927;29;20503;-81
2023/08/14 07:34:26;;;;;;;4.20;1.90;;;22.10;99.90;;;;;;4897458;29;20518;-81
2023/08/14 07:36:51;;;;;;;3.28;2.03;;;22.20;99.90;;;;;;4896082;29;20542;-82
2023/08/14 07:39:17;;;;;;;5.18;2.10;;;22.30;99.90;;;;;;4899071;29;20043;-81
2023/08/14 07:41:42;;;;;;;2.92;1.95;;;22.30;99.90;;;;;;4898430;29;20507;-82
2023/08/14 07:44:08;;;;;;;3.80;1.88;;;22.40;99.90;;;;;;4898940;29;20020;-82
2023/08/14 07:46:33;;;;;;;5.78;2.20;;;22.40;99.90;;;;;;4896509;29;20452;-82
2023/08/14 07:48:59;;;;;;;3.97;2.03;;;22.40;99.90;;;;;;4895489;29;20484;-82
2023/08/14 07:51:25;;;;;;;5.32;2.75;;;22.30;99.90;;;;;;4896613;29;20035;-81
2023/08/14 07:53:50;;;;;;;7.22;2.55;;;22.30;99.90;;;;;;4895536;29;20032;-81
2023/08/14 07:56:16;;;;;;;4.20;2.25;;;22.30;99.90;;;;;;4896982;29;20048;-81
2023/08/14 07:58:41;;;;;;;5.90;2.55;;;22.20;99.90;;;;;;4894911;29;20044;-75
2023/08/14 08:01:07;;;;;;;6.22;2.33;;;22.20;99.90;;;;;;4894001;29;20024;-75
2023/08/14 08:03:33;;;;;;;6.85;2.58;;;22.20;99.90;;;;;;4897573;29;21369;-82
2023/08/14 08:06:00;;;;;;;4.05;2.28;;;22.40;99.90;;;;;;4901170;29;20047;-78
2023/08/14 08:08:25;;;;;;;6.80;2.70;;;22.50;99.90;;;;;;4899376;29;20031;-80
2023/08/14 08:10:51;;;;;;;7.32;2.90;;;22.70;99.90;;;;;;4890181;29;20044;-81
2023/08/14 08:13:16;;;;;;;3.83;2.53;;;22.80;99.90;;;;;;4888320;29;20079;-79
2023/08/14 08:15:42;;;;;;;3.90;2.10;;;23.00;99.90;;;;;;4893466;29;20139;-79
2023/08/14 08:18:07;;;;;;;3.88;2.25;;;23.30;99.90;;;;;;4893801;29;20105;-79
2023/08/14 08:20:33;;;;;;;3.83;2.03;;;23.50;99.90;;;;;;4891446;29;20076;-78
2023/08/14 08:22:58;;;;;;;4.28;2.42;;;23.70;99.90;;;;;;4890721;29;20039;-78
2023/08/14 08:25:24;;;;;;;4.38;2.20;;;23.90;99.90;;;;;;4891679;29;20083;-78
2023/08/14 08:27:50;;;;;;;4.20;2.35;;;24.10;99.90;;;;;;4890056;29;20034;-79
2023/08/14 08:30:15;;;;;;;5.43;2.33;;;24.30;99.90;;;;;;4890393;29;20033;-78
2023/08/14 08:32:41;;;;;;;5.07;2.08;;;24.40;99.90;;;;;;4890571;29;20028;-78
2023/08/14 08:35:07;;;;;;;4.75;2.20;;;24.60;99.90;;;;;;4891239;29;20039;-78
2023/08/14 08:37:32;;;;;;;4.47;2.13;;;24.70;99.90;;;;;;4891969;29;20033;-81
2023/08/14 08:39:58;;;;;;;3.53;2.28;;;24.80;99.90;;;;;;4891022;29;20032;-80
2023/08/14 08:42:24;;;;;;;3.75;2.38;;;24.90;99.90;;;;;;4892342;29;20032;-80
2023/08/14 08:44:52;;;;;;;8.20;2.38;;;24.90;99.90;;;;;;4888060;29;20091;-79
2023/08/14 08:47:23;;;;;;;4.60;2.20;;;25.00;99.90;;;;;;4892345;29;20034;-78
2023/08/14 08:49:49;;;;;;;3.72;2.10;;;25.10;99.90;;;;;;4889362;29;20144;-78
2023/08/14 08:52:15;;;;;;;4.07;2.25;;;25.20;99.90;;;;;;4892435;29;20028;-78
2023/08/14 08:54:40;;;;;;;6.95;2.88;;;25.20;99.90;;;;;;4890362;29;20504;-79
2023/08/14 08:57:06;;;;;;;4.47;2.50;;;25.20;99.90;;;;;;4890371;29;20036;-79
2023/08/14 08:59:32;;;;;;;3.42;2.40;;;25.30;99.90;;;;;;4895408;29;20737;-80
2023/08/14 09:01:58;;;;;;;5.43;2.25;;;25.50;99.90;;;;;;4892069;29;20055;-79
2023/08/14 09:04:24;;;;;;;6.38;2.20;;;25.60;99.90;;;;;;4892556;29;20116;-81
2023/08/14 09:06:49;;;;;;;3.95;2.22;;;25.80;99.90;;;;;;4894031;29;20067;-79
2023/08/14 09:09:16;;;;;;;4.07;1.85;;;25.80;99.90;;;;;;4894218;29;20025;-79
2023/08/14 09:11:42;;;;;;;3.47;1.98;;;25.90;99.90;;;;;;4896699;29;20025;-79
2023/08/14 09:14:07;;;;;;;3.70;2.53;;;26.00;99.90;;;;;;4893003;29;20044;-79
2023/08/14 09:16:33;;;;;;;3.67;2.20;;;26.10;99.90;;;;;;4893304;29;20033;-79
2023/08/14 09:19:00;;;;;;;8.55;2.67;;;26.30;99.90;;;;;;4896614;29;20041;-79
2023/08/14 09:21:29;;;;;;;5.80;2.30;;;26.40;99.90;;;;;;4899927;29;20040;-79
2023/08/14 09:23:55;;;;;;;4.38;2.28;;;26.60;99.90;;;;;;4898126;29;20055;-80
2023/08/14 09:26:22;;;;;;;3.42;2.40;;;26.50;99.90;;;;;;4897675;29;20042;-80
2023/08/14 09:28:48;;;;;;;4.50;2.28;;;26.70;99.90;;;;;;4897741;29;20052;-79
2023/08/14 09:31:14;;;;;;;3.67;2.25;;;26.80;99.90;;;;;;4896811;29;20036;-80
2023/08/14 09:33:41;;;;;;;3.90;2.03;;;27.00;99.90;;;;;;4898209;29;20041;-78
2023/08/14 09:36:07;;;;;;;4.43;2.33;;;27.20;99.90;;;;;;4897215;29;20041;-79
2023/08/14 09:38:33;;;;;;;5.50;1.85;;;27.40;99.90;;;;;;4895726;29;20021;-79
2023/08/14 09:40:59;;;;;;;4.45;2.08;;;27.60;99.90;;;;;;4899586;29;20348;-80
2023/08/14 09:43:26;;;;;;;3.95;1.95;;;27.60;99.90;;;;;;4900212;29;20039;-78
2023/08/14 09:45:53;;;;;;;3.20;1.88;;;27.60;99.90;;;;;;4899710;29;20040;-79
2023/08/14 09:48:19;;;;;;;5.15;2.10;;;27.60;99.90;;;;;;4899414;29;20082;-79
2023/08/14 09:50:49;;;;;;;4.05;2.00;;;27.60;99.90;;;;;;4898913;29;20041;-79
2023/08/14 09:53:15;;;;;;;3.25;1.90;;;27.80;99.90;;;;;;4899779;29;20145;-79
2023/08/14 09:55:42;;;;;;;5.88;2.22;;;27.90;99.90;;;;;;4899718;29;20052;-78
2023/08/14 09:58:07;;;;;;;2.67;1.80;;;27.90;99.90;;;;;;4900189;29;20020;-78
2023/08/14 10:00:33;;;;;;;5.57;1.80;;;27.90;99.90;;;;;;4900402;29;20025;-78
2023/08/14 10:03:00;;;;;;;2.80;1.75;;;28.00;99.90;;;;;;4898338;29;20075;-79
2023/08/14 10:05:26;;;;;;;3.33;1.90;;;28.10;99.90;;;;;;4899133;29;20116;-79
2023/08/14 10:07:53;;;;;;;3.90;2.17;;;28.30;99.90;;;;;;4899646;29;20122;-79
2023/08/14 10:10:20;;;;;;;2.78;1.88;;;28.40;99.90;;;;;;4898710;29;20025;-79
2023/08/14 10:12:51;;;;;;;5.03;1.75;;;28.50;99.90;;;;;;4900157;29;20172;-79
2023/08/14 10:15:41;;;;;;;5.40;1.77;;;28.80;99.90;;;;;;4898160;29;20072;-79
2023/08/14 10:18:13;;;;;;;2.17;1.52;;;28.80;99.90;;;;;;4899523;29;20043;-79
2023/08/14 10:20:41;;;;;;;5.30;2.10;;;28.80;99.90;;;;;;4899175;29;20142;-79
2023/08/14 10:23:08;;;;;;;2.50;1.52;;;28.80;99.90;;;;;;4900420;29;20033;-79
2023/08/14 10:25:36;;;;;;;3.17;1.70;;;28.90;99.90;;;;;;4898819;29;20120;-79
2023/08/14 10:28:02;;;;;;;3.25;1.92;;;29.10;99.90;;;;;;4898164;29;20031;-78
2023/08/14 10:30:29;;;;;;;6.43;2.00;;;29.10;99.90;;;;;;4898834;29;20399;-78
2023/08/14 10:32:55;;;;;;;3.40;1.85;;;29.00;99.90;;;;;;4899823;29;20497;-79
2023/08/14 10:35:22;;;;;;;4.70;1.70;;;29.10;99.90;;;;;;4900737;29;20502;-78
2023/08/14 10:37:48;;;;;;;4.35;1.80;;;29.20;99.90;;;;;;4898164;29;20070;-79
2023/08/14 10:40:18;;;;;;;3.45;1.90;;;29.40;99.90;;;;;;4897432;29;20055;-77
2023/08/14 10:42:50;;;;;;;4.93;1.92;;;29.70;99.90;;;;;;4899017;29;20032;-78
2023/08/14 10:45:17;;;;;;;7.85;3.08;;;29.70;99.90;;;;;;4897430;29;20040;-78
2023/08/14 10:47:43;;;;;;;4.95;2.47;;;29.80;99.90;;;;;;4899045;29;20957;-78
2023/08/14 10:50:33;;;;;;;3.08;2.00;;;29.80;99.90;;;;;;4897440;29;20893;-77
2023/08/14 10:52:58;;;;;;;2.85;2.00;;;30.00;99.90;;;;;;4892546;29;20040;-78
2023/08/14 10:55:39;;;;;;;4.78;2.00;;;30.10;99.90;;;;;;4897131;29;20051;-79
2023/08/14 10:58:35;;;;;;;4.50;1.80;;;30.10;99.90;;;;;;4895551;29;20055;-77
2023/08/14 11:01:02;;;;;;;5.53;1.92;;;30.20;99.90;;;;;;4896877;29;20985;-78
2023/08/14 11:03:30;;;;;;;3.53;1.85;;;30.60;99.90;;;;;;4895526;29;20032;-77
2023/08/14 11:05:56;;;;;;;3.42;1.83;;;30.60;99.90;;;;;;4897624;29;20036;-79
2023/08/14 11:08:21;;;;;;;3.92;1.60;;;30.70;99.90;;;;;;4897691;29;20104;-79
2023/08/14 11:10:49;;;;;;;5.05;1.70;;;30.90;99.90;;;;;;4896361;29;20054;-78
2023/08/14 11:13:15;;;;;;;5.70;1.90;;;31.10;99.90;;;;;;4898669;29;20028;-79
2023/08/14 11:15:42;;;;;;;3.45;1.80;;;31.50;99.90;;;;;;4898266;29;20147;-79
2023/08/14 11:18:09;;;;;;;4.68;2.00;;;31.70;99.90;;;;;;4899019;29;20036;-78
2023/08/14 11:20:37;;;;;;;3.35;1.50;;;31.80;99.90;;;;;;4897394;29;20024;-79
2023/08/14 11:23:03;;;;;;;5.82;1.95;;;31.80;99.90;;;;;;4897957;29;21380;-77
2023/08/14 11:25:28;;;;;;;2.30;1.58;;;31.90;99.90;;;;;;4898489;29;20031;-79
2023/08/14 11:27:55;;;;;;;5.63;1.90;;;31.70;99.90;;;;;;4897603;29;20060;-79
2023/08/14 11:30:30;;;;;;;1.90;1.58;;;32.00;99.90;;;;;;4897997;29;20524;-80
2023/08/14 11:32:56;;;;;;;4.18;2.28;;;32.00;99.90;;;;;;4898585;29;20119;-79
2023/08/14 11:35:25;;;;;;;4.40;1.90;;;32.00;99.90;;;;;;4899666;29;20060;-79
2023/08/14 11:37:50;;;;;;;3.38;1.85;;;32.20;99.90;;;;;;4896943;29;20036;-79
2023/08/14 11:40:17;;;;;;;6.22;1.95;;;32.20;99.90;;;;;;4896930;29;20052;-79
2023/08/14 11:42:43;;;;;;;4.78;1.90;;;32.40;99.90;;;;;;4895355;29;20031;-80
2023/08/14 11:45:10;;;;;;;2.17;1.63;;;32.40;99.90;;;;;;4898446;29;20073;-79
2023/08/14 11:47:38;;;;;;;3.20;1.70;;;32.50;99.90;;;;;;4894331;29;20036;-79
2023/08/14 11:50:05;;;;;;;2.88;1.80;;;32.20;99.90;;;;;;4896739;29;20035;-79
2023/08/14 11:52:30;;;;;;;3.72;1.92;;;32.00;99.90;;;;;;4897590;29;20032;-79
2023/08/14 11:54:57;;;;;;;4.03;1.60;;;31.80;99.90;;;;;;4898750;29;20043;-79
2023/08/14 11:57:27;;;;;;;3.45;1.67;;;31.60;99.90;;;;;;4896134;29;20035;-79
2023/08/14 11:59:53;;;;;;;3.13;1.70;;;31.30;99.90;;;;;;4897527;29;20445;-79
2023/08/14 12:02:20;;;;;;;3.88;1.60;;;31.20;99.90;;;;;;4898596;29;20039;-79
2023/08/14 12:04:55;;;;;;;3.13;1.70;;;31.10;99.90;;;;;;4898065;29;20046;-78
2023/08/14 12:07:21;;;;;;;5.50;1.90;;;30.90;99.90;;;;;;4898769;29;20028;-78
2023/08/14 12:09:48;;;;;;;3.55;1.92;;;30.70;99.90;;;;;;4897608;29;20084;-79
2023/08/14 12:12:16;;;;;;;3.45;1.80;;;30.60;99.90;;;;;;4898120;29;20120;-79
2023/08/14 12:14:46;;;;;;;1.67;1.58;;;30.50;99.90;;;;;;4897409;29;20716;-79
2023/08/14 12:17:13;;;;;;;4.07;2.00;;;30.30;99.90;;;;;;4898270;29;20032;-78
2023/08/14 12:19:39;;;;;;;3.00;1.98;;;30.20;99.90;;;;;;4896826;29;20039;-79
2023/08/14 12:22:08;;;;;;;4.30;1.70;;;30.20;99.90;;;;;;4895991;29;20122;-79
2023/08/14 12:24:42;;;;;;;4.15;1.90;;;30.40;99.90;;;;;;4894937;29;20087;-78
2023/08/14 12:27:16;;;;;;;2.70;1.75;;;30.50;99.90;;;;;;4897283;29;20032;-79
2023/08/14 12:29:42;;;;;;;2.80;1.98;;;30.70;99.90;;;;;;4899074;29;20179;-79
2023/08/14 12:32:08;;;;;;;4.30;2.22;;;31.00;99.90;;;;;;4896921;29;20030;-78
2023/08/14 12:34:34;;;;;;;2.95;1.60;;;31.30;99.90;;;;;;4897446;29;21029;-77
2023/08/14 12:36:59;;;;;;;3.97;1.90;;;31.80;99.90;;;;;;4895560;29;20218;-78
2023/08/14 12:39:25;;;;;;;5.30;1.95;;;32.00;99.90;;;;;;4897520;29;20029;-78
2023/08/14 12:41:55;;;;;;;2.97;1.90;;;32.20;99.90;;;;;;4897779;29;20020;-78